sensor_id;sensor_type;location;lat;lon;timestamp;P1;durP1;ratioP1;P2;durP2;ratioP2
14732;SDS011;7457;50.960;6.830;2023-02-18T00:02:10;12.05;;;9.50;;
14732;SDS011;7457;50.960;6.830;2023-02-18T00:04:36;9.27;;;7.57;;
14732;SDS011;7457;50.960;6.830;2023-02-18T00:07:01;10.60;;;8.10;;
14732;SDS011;7457;50.960;6.830;2023-02-18T00:09:27;10.77;;;8.68;;
14732;SDS011;7457;50.960;6.830;2023-02-18T00:11:53;10.93;;;8.65;;
14732;SDS011;7457;50.960;6.830;2023-02-18T00:14:18;11.75;;;8.38;;
14732;SDS011;7457;50.960;6.830;2023-02-18T00:16:44;10.30;;;8.52;;
14732;SDS011;7457;50.960;6.830;2023-02-18T00:19:12;10.40;;;8.45;;
14732;SDS011;7457;50.960;6.830;2023-02-18T00:21:40;10.27;;;8.75;;
14732;SDS011;7457;50.960;6.830;2023-02-18T00:24:06;10.63;;;7.88;;
14732;SDS011;7457;50.960;6.830;2023-02-18T00:26:33;10.38;;;8.63;;
14732;SDS011;7457;50.960;6.830;2023-02-18T00:28:59;10.73;;;8.55;;
14732;SDS011;7457;50.960;6.830;2023-02-18T00:31:26;10.95;;;8.35;;
14732;SDS011;7457;50.960;6.830;2023-02-18T00:33:57;10.20;;;7.95;;
14732;SDS011;7457;50.960;6.830;2023-02-18T00:36:23;9.45;;;8.32;;
14732;SDS011;7457;50.960;6.830;2023-02-18T00:38:54;9.52;;;7.38;;
14732;SDS011;7457;50.960;6.830;2023-02-18T00:41:21;9.07;;;7.55;;
14732;SDS011;7457;50.960;6.830;2023-02-18T00:43:48;10.88;;;8.02;;
14732;SDS011;7457;50.960;6.830;2023-02-18T00:46:14;9.35;;;7.60;;
14732;SDS011;7457;50.960;6.830;2023-02-18T00:48:40;11.38;;;8.18;;
14732;SDS011;7457;50.960;6.830;2023-02-18T00:51:06;8.23;;;6.88;;
14732;SDS011;7457;50.960;6.830;2023-02-18T00:53:32;10.38;;;8.55;;
14732;SDS011;7457;50.960;6.830;2023-02-18T00:55:58;8.77;;;7.25;;
14732;SDS011;7457;50.960;6.830;2023-02-18T00:58:25;8.45;;;6.45;;
14732;SDS011;7457;50.960;6.830;2023-02-18T01:00:51;8.77;;;6.93;;
14732;SDS011;7457;50.960;6.830;2023-02-18T01:03:17;8.07;;;6.63;;
14732;SDS011;7457;50.960;6.830;2023-02-18T01:05:43;7.35;;;5.88;;
14732;SDS011;7457;50.960;6.830;2023-02-18T01:08:09;8.13;;;7.10;;
14732;SDS011;7457;50.960;6.830;2023-02-18T01:10:38;8.60;;;7.25;;
14732;SDS011;7457;50.960;6.830;2023-02-18T01:13:06;7.47;;;5.85;;
14732;SDS011;7457;50.960;6.830;2023-02-18T01:15:32;9.73;;;6.38;;
14732;SDS011;7457;50.960;6.830;2023-02-18T01:17:58;6.50;;;5.75;;
14732;SDS011;7457;50.960;6.830;2023-02-18T01:20:25;7.82;;;6.90;;
14732;SDS011;7457;50.960;6.830;2023-02-18T01:22:51;6.22;;;5.32;;
14732;SDS011;7457;50.960;6.830;2023-02-18T01:25:16;7.22;;;5.40;;
14732;SDS011;7457;50.960;6.830;2023-02-18T01:27:42;8.88;;;5.63;;
14732;SDS011;7457;50.960;6.830;2023-02-18T01:30:09;6.47;;;5.75;;
14732;SDS011;7457;50.960;6.830;2023-02-18T01:32:37;6.82;;;5.47;;
14732;SDS011;7457;50.960;6.830;2023-02-18T01:35:05;7.85;;;5.97;;
14732;SDS011;7457;50.960;6.830;2023-02-18T01:37:31;6.40;;;5.25;;
14732;SDS011;7457;50.960;6.830;2023-02-18T01:39:58;8.80;;;5.78;;
14732;SDS011;7457;50.960;6.830;2023-02-18T01:42:24;8.00;;;5.25;;
14732;SDS011;7457;50.960;6.830;2023-02-18T01:44:52;6.15;;;5.43;;
14732;SDS011;7457;50.960;6.830;2023-02-18T01:47:19;8.35;;;5.47;;
14732;SDS011;7457;50.960;6.830;2023-02-18T01:49:46;7.22;;;5.97;;
14732;SDS011;7457;50.960;6.830;2023-02-18T01:52:23;7.60;;;5.93;;
14732;SDS011;7457;50.960;6.830;2023-02-18T01:54:53;7.43;;;5.55;;
14732;SDS011;7457;50.960;6.830;2023-02-18T01:59:59;8.45;;;6.07;;
14732;SDS011;7457;50.960;6.830;2023-02-18T02:02:29;8.93;;;7.15;;
14732;SDS011;7457;50.960;6.830;2023-02-18T02:04:57;9.73;;;6.10;;
14732;SDS011;7457;50.960;6.830;2023-02-18T02:07:23;10.48;;;6.65;;
14732;SDS011;7457;50.960;6.830;2023-02-18T02:09:51;7.82;;;6.35;;
14732;SDS011;7457;50.960;6.830;2023-02-18T02:18:35;8.32;;;6.03;;
14732;SDS011;7457;50.960;6.830;2023-02-18T02:26:34;9.15;;;6.25;;
14732;SDS011;7457;50.960;6.830;2023-02-18T02:38:18;9.27;;;6.95;;
14732;SDS011;7457;50.960;6.830;2023-02-18T02:41:01;9.10;;;7.72;;
14732;SDS011;7457;50.960;6.830;2023-02-18T02:44:10;11.85;;;8.00;;
14732;SDS011;7457;50.960;6.830;2023-02-18T02:47:05;10.57;;;8.27;;
14732;SDS011;7457;50.960;6.830;2023-02-18T02:49:42;10.80;;;8.05;;
14732;SDS011;7457;50.960;6.830;2023-02-18T02:52:48;10.95;;;7.85;;
14732;SDS011;7457;50.960;6.830;2023-02-18T02:55:14;11.68;;;8.65;;
14732;SDS011;7457;50.960;6.830;2023-02-18T02:57:41;10.02;;;8.25;;
14732;SDS011;7457;50.960;6.830;2023-02-18T03:00:09;11.35;;;8.60;;
14732;SDS011;7457;50.960;6.830;2023-02-18T03:18:50;8.93;;;6.75;;
14732;SDS011;7457;50.960;6.830;2023-02-18T03:21:29;7.10;;;5.72;;
14732;SDS011;7457;50.960;6.830;2023-02-18T03:30:04;6.80;;;5.93;;
14732;SDS011;7457;50.960;6.830;2023-02-18T03:32:34;6.97;;;5.70;;
14732;SDS011;7457;50.960;6.830;2023-02-18T03:35:02;7.50;;;5.57;;
14732;SDS011;7457;50.960;6.830;2023-02-18T03:37:34;6.53;;;5.82;;
14732;SDS011;7457;50.960;6.830;2023-02-18T03:40:06;6.68;;;5.75;;
14732;SDS011;7457;50.960;6.830;2023-02-18T03:42:34;7.25;;;5.47;;
14732;SDS011;7457;50.960;6.830;2023-02-18T03:44:59;6.38;;;5.07;;
14732;SDS011;7457;50.960;6.830;2023-02-18T03:47:25;6.88;;;4.95;;
14732;SDS011;7457;50.960;6.830;2023-02-18T03:49:51;5.35;;;4.25;;
14732;SDS011;7457;50.960;6.830;2023-02-18T03:52:17;4.72;;;3.92;;
14732;SDS011;7457;50.960;6.830;2023-02-18T03:54:42;4.90;;;4.25;;
14732;SDS011;7457;50.960;6.830;2023-02-18T03:57:08;4.50;;;4.00;;
14732;SDS011;7457;50.960;6.830;2023-02-18T03:59:33;4.05;;;3.65;;
14732;SDS011;7457;50.960;6.830;2023-02-18T04:01:59;4.10;;;3.65;;
14732;SDS011;7457;50.960;6.830;2023-02-18T04:04:25;3.92;;;3.30;;
14732;SDS011;7457;50.960;6.830;2023-02-18T04:06:50;5.00;;;2.67;;
14732;SDS011;7457;50.960;6.830;2023-02-18T04:09:16;3.33;;;2.88;;
14732;SDS011;7457;50.960;6.830;2023-02-18T04:11:42;2.20;;;2.00;;
14732;SDS011;7457;50.960;6.830;2023-02-18T04:14:07;2.35;;;2.08;;
14732;SDS011;7457;50.960;6.830;2023-02-18T04:16:33;2.10;;;1.90;;
14732;SDS011;7457;50.960;6.830;2023-02-18T04:18:59;2.10;;;1.98;;
14732;SDS011;7457;50.960;6.830;2023-02-18T04:21:24;2.10;;;1.95;;
14732;SDS011;7457;50.960;6.830;2023-02-18T04:23:50;1.50;;;1.40;;
14732;SDS011;7457;50.960;6.830;2023-02-18T04:26:15;2.00;;;1.83;;
14732;SDS011;7457;50.960;6.830;2023-02-18T04:28:41;1.92;;;1.65;;
14732;SDS011;7457;50.960;6.830;2023-02-18T04:31:07;2.47;;;1.77;;
14732;SDS011;7457;50.960;6.830;2023-02-18T04:33:32;1.70;;;1.60;;
14732;SDS011;7457;50.960;6.830;2023-02-18T04:35:58;1.42;;;1.20;;
14732;SDS011;7457;50.960;6.830;2023-02-18T04:38:23;2.30;;;1.65;;
14732;SDS011;7457;50.960;6.830;2023-02-18T04:40:49;1.50;;;1.40;;
14732;SDS011;7457;50.960;6.830;2023-02-18T04:43:15;1.65;;;1.55;;
14732;SDS011;7457;50.960;6.830;2023-02-18T04:45:40;2.67;;;1.30;;
14732;SDS011;7457;50.960;6.830;2023-02-18T04:48:06;1.20;;;1.17;;
14732;SDS011;7457;50.960;6.830;2023-02-18T04:50:32;1.50;;;1.38;;
14732;SDS011;7457;50.960;6.830;2023-02-18T04:52:57;2.00;;;1.45;;
14732;SDS011;7457;50.960;6.830;2023-02-18T04:55:23;1.63;;;1.52;;
14732;SDS011;7457;50.960;6.830;2023-02-18T04:57:49;1.83;;;1.73;;
14732;SDS011;7457;50.960;6.830;2023-02-18T05:00:15;1.65;;;1.55;;
14732;SDS011;7457;50.960;6.830;2023-02-18T05:02:43;1.60;;;1.50;;
14732;SDS011;7457;50.960;6.830;2023-02-18T05:05:09;1.70;;;1.60;;
14732;SDS011;7457;50.960;6.830;2023-02-18T05:07:35;1.80;;;1.70;;
14732;SDS011;7457;50.960;6.830;2023-02-18T05:10:02;2.47;;;1.70;;
14732;SDS011;7457;50.960;6.830;2023-02-18T05:12:28;1.90;;;1.80;;
14732;SDS011;7457;50.960;6.830;2023-02-18T05:14:53;2.70;;;1.88;;
14732;SDS011;7457;50.960;6.830;2023-02-18T05:17:19;2.00;;;1.80;;
14732;SDS011;7457;50.960;6.830;2023-02-18T05:19:45;2.45;;;2.25;;
14732;SDS011;7457;50.960;6.830;2023-02-18T05:22:10;2.75;;;2.45;;
14732;SDS011;7457;50.960;6.830;2023-02-18T05:24:36;2.97;;;2.65;;
14732;SDS011;7457;50.960;6.830;2023-02-18T05:27:01;4.38;;;3.30;;
14732;SDS011;7457;50.960;6.830;2023-02-18T05:29:27;3.55;;;2.63;;
14732;SDS011;7457;50.960;6.830;2023-02-18T05:31:53;3.35;;;2.75;;
14732;SDS011;7457;50.960;6.830;2023-02-18T05:34:18;3.00;;;2.47;;
14732;SDS011;7457;50.960;6.830;2023-02-18T05:36:44;2.88;;;2.58;;
14732;SDS011;7457;50.960;6.830;2023-02-18T05:39:09;2.90;;;2.60;;
14732;SDS011;7457;50.960;6.830;2023-02-18T05:41:35;3.10;;;2.67;;
14732;SDS011;7457;50.960;6.830;2023-02-18T05:44:01;4.28;;;3.00;;
14732;SDS011;7457;50.960;6.830;2023-02-18T05:46:45;3.92;;;2.97;;
14732;SDS011;7457;50.960;6.830;2023-02-18T05:49:10;3.33;;;3.03;;
14732;SDS011;7457;50.960;6.830;2023-02-18T05:51:36;2.80;;;2.58;;
14732;SDS011;7457;50.960;6.830;2023-02-18T05:54:02;4.22;;;3.33;;
14732;SDS011;7457;50.960;6.830;2023-02-18T05:56:28;3.75;;;3.42;;
14732;SDS011;7457;50.960;6.830;2023-02-18T05:58:54;3.45;;;3.15;;
14732;SDS011;7457;50.960;6.830;2023-02-18T06:01:19;4.35;;;3.50;;
14732;SDS011;7457;50.960;6.830;2023-02-18T06:03:45;4.55;;;3.88;;
14732;SDS011;7457;50.960;6.830;2023-02-18T06:06:11;4.10;;;3.30;;
14732;SDS011;7457;50.960;6.830;2023-02-18T06:08:36;3.83;;;3.15;;
14732;SDS011;7457;50.960;6.830;2023-02-18T06:11:02;3.58;;;3.28;;
14732;SDS011;7457;50.960;6.830;2023-02-18T06:13:28;4.28;;;3.35;;
14732;SDS011;7457;50.960;6.830;2023-02-18T06:15:53;4.10;;;3.70;;
14732;SDS011;7457;50.960;6.830;2023-02-18T06:18:19;3.45;;;3.15;;
14732;SDS011;7457;50.960;6.830;2023-02-18T06:20:46;3.45;;;3.15;;
14732;SDS011;7457;50.960;6.830;2023-02-18T06:23:13;3.22;;;2.92;;
14732;SDS011;7457;50.960;6.830;2023-02-18T06:25:39;3.30;;;3.00;;
14732;SDS011;7457;50.960;6.830;2023-02-18T06:28:05;3.53;;;3.20;;
14732;SDS011;7457;50.960;6.830;2023-02-18T06:30:31;3.50;;;3.20;;
14732;SDS011;7457;50.960;6.830;2023-02-18T06:32:56;2.65;;;2.45;;
14732;SDS011;7457;50.960;6.830;2023-02-18T06:35:22;2.60;;;2.40;;
14732;SDS011;7457;50.960;6.830;2023-02-18T06:37:48;2.63;;;2.42;;
14732;SDS011;7457;50.960;6.830;2023-02-18T06:40:13;2.22;;;2.03;;
14732;SDS011;7457;50.960;6.830;2023-02-18T06:42:39;1.80;;;1.70;;
14732;SDS011;7457;50.960;6.830;2023-02-18T06:45:04;1.63;;;1.52;;
14732;SDS011;7457;50.960;6.830;2023-02-18T06:47:31;1.75;;;1.65;;
14732;SDS011;7457;50.960;6.830;2023-02-18T06:49:57;1.95;;;1.60;;
14732;SDS011;7457;50.960;6.830;2023-02-18T06:52:22;1.38;;;1.27;;
14732;SDS011;7457;50.960;6.830;2023-02-18T06:54:48;2.22;;;1.40;;
14732;SDS011;7457;50.960;6.830;2023-02-18T06:57:14;1.00;;;1.00;;
14732;SDS011;7457;50.960;6.830;2023-02-18T06:59:39;1.02;;;1.02;;
14732;SDS011;7457;50.960;6.830;2023-02-18T07:02:05;1.02;;;1.02;;
14732;SDS011;7457;50.960;6.830;2023-02-18T07:04:31;1.30;;;1.20;;
14732;SDS011;7457;50.960;6.830;2023-02-18T07:06:56;1.50;;;1.40;;
14732;SDS011;7457;50.960;6.830;2023-02-18T07:09:22;1.10;;;1.10;;
14732;SDS011;7457;50.960;6.830;2023-02-18T07:11:48;1.40;;;1.30;;
14732;SDS011;7457;50.960;6.830;2023-02-18T07:14:13;1.30;;;1.20;;
14732;SDS011;7457;50.960;6.830;2023-02-18T07:16:39;1.17;;;1.13;;
14732;SDS011;7457;50.960;6.830;2023-02-18T07:19:04;1.20;;;1.20;;
14732;SDS011;7457;50.960;6.830;2023-02-18T07:21:30;1.40;;;1.30;;
14732;SDS011;7457;50.960;6.830;2023-02-18T07:23:55;1.40;;;1.30;;
14732;SDS011;7457;50.960;6.830;2023-02-18T07:26:21;1.38;;;1.27;;
14732;SDS011;7457;50.960;6.830;2023-02-18T07:28:47;1.40;;;1.30;;
14732;SDS011;7457;50.960;6.830;2023-02-18T07:31:12;1.50;;;1.40;;
14732;SDS011;7457;50.960;6.830;2023-02-18T07:33:38;1.30;;;1.30;;
14732;SDS011;7457;50.960;6.830;2023-02-18T07:36:03;1.20;;;1.05;;
14732;SDS011;7457;50.960;6.830;2023-02-18T07:38:29;2.17;;;1.05;;
14732;SDS011;7457;50.960;6.830;2023-02-18T07:40:55;1.33;;;1.20;;
14732;SDS011;7457;50.960;6.830;2023-02-18T07:43:22;1.60;;;1.50;;
14732;SDS011;7457;50.960;6.830;2023-02-18T07:45:48;1.15;;;1.05;;
14732;SDS011;7457;50.960;6.830;2023-02-18T07:48:14;1.23;;;1.00;;
14732;SDS011;7457;50.960;6.830;2023-02-18T07:50:40;0.88;;;0.88;;
14732;SDS011;7457;50.960;6.830;2023-02-18T07:53:08;1.33;;;1.20;;
14732;SDS011;7457;50.960;6.830;2023-02-18T07:55:35;1.15;;;0.98;;
14732;SDS011;7457;50.960;6.830;2023-02-18T07:58:23;1.15;;;1.05;;
14732;SDS011;7457;50.960;6.830;2023-02-18T08:00:57;1.35;;;1.23;;
14732;SDS011;7457;50.960;6.830;2023-02-18T08:03:24;3.60;;;1.63;;
14732;SDS011;7457;50.960;6.830;2023-02-18T08:05:52;1.52;;;1.42;;
14732;SDS011;7457;50.960;6.830;2023-02-18T08:08:19;2.42;;;1.38;;
14732;SDS011;7457;50.960;6.830;2023-02-18T08:10:47;2.83;;;1.90;;
14732;SDS011;7457;50.960;6.830;2023-02-18T08:13:13;3.97;;;2.20;;
14732;SDS011;7457;50.960;6.830;2023-02-18T08:15:39;2.38;;;2.17;;
14732;SDS011;7457;50.960;6.830;2023-02-18T08:18:05;4.43;;;2.25;;
14732;SDS011;7457;50.960;6.830;2023-02-18T08:20:35;4.43;;;2.53;;
14732;SDS011;7457;50.960;6.830;2023-02-18T08:23:02;3.38;;;2.83;;
14732;SDS011;7457;50.960;6.830;2023-02-18T08:25:30;4.20;;;2.40;;
14732;SDS011;7457;50.960;6.830;2023-02-18T08:27:57;7.03;;;2.80;;
14732;SDS011;7457;50.960;6.830;2023-02-18T08:30:23;4.30;;;2.50;;
14732;SDS011;7457;50.960;6.830;2023-02-18T08:32:49;6.15;;;2.70;;
14732;SDS011;7457;50.960;6.830;2023-02-18T08:35:15;6.35;;;2.92;;
14732;SDS011;7457;50.960;6.830;2023-02-18T08:37:41;5.95;;;2.47;;
14732;SDS011;7457;50.960;6.830;2023-02-18T08:40:08;4.00;;;2.20;;
14732;SDS011;7457;50.960;6.830;2023-02-18T08:42:34;7.32;;;3.22;;
14732;SDS011;7457;50.960;6.830;2023-02-18T08:45:00;9.07;;;2.85;;
14732;SDS011;7457;50.960;6.830;2023-02-18T08:47:25;5.50;;;2.75;;
14732;SDS011;7457;50.960;6.830;2023-02-18T08:49:51;6.65;;;2.63;;
14732;SDS011;7457;50.960;6.830;2023-02-18T08:52:18;7.28;;;2.85;;
14732;SDS011;7457;50.960;6.830;2023-02-18T08:54:44;7.57;;;3.13;;
14732;SDS011;7457;50.960;6.830;2023-02-18T08:57:09;6.97;;;2.80;;
14732;SDS011;7457;50.960;6.830;2023-02-18T08:59:35;9.32;;;3.35;;
14732;SDS011;7457;50.960;6.830;2023-02-18T09:02:01;13.43;;;3.15;;
14732;SDS011;7457;50.960;6.830;2023-02-18T09:04:26;6.53;;;3.08;;
14732;SDS011;7457;50.960;6.830;2023-02-18T09:06:52;5.50;;;2.63;;
14732;SDS011;7457;50.960;6.830;2023-02-18T09:09:18;11.38;;;3.33;;
14732;SDS011;7457;50.960;6.830;2023-02-18T09:11:43;7.82;;;2.78;;
14732;SDS011;7457;50.960;6.830;2023-02-18T09:14:09;7.05;;;2.78;;
14732;SDS011;7457;50.960;6.830;2023-02-18T09:16:35;7.35;;;2.50;;
14732;SDS011;7457;50.960;6.830;2023-02-18T09:19:02;8.43;;;2.92;;
14732;SDS011;7457;50.960;6.830;2023-02-18T09:21:28;5.72;;;3.35;;
14732;SDS011;7457;50.960;6.830;2023-02-18T09:23:54;4.70;;;2.95;;
14732;SDS011;7457;50.960;6.830;2023-02-18T09:26:20;8.63;;;2.95;;
14732;SDS011;7457;50.960;6.830;2023-02-18T09:28:47;6.32;;;2.67;;
14732;SDS011;7457;50.960;6.830;2023-02-18T09:31:15;6.10;;;2.67;;
14732;SDS011;7457;50.960;6.830;2023-02-18T09:33:47;10.05;;;2.20;;
14732;SDS011;7457;50.960;6.830;2023-02-18T09:36:17;8.35;;;2.70;;
14732;SDS011;7457;50.960;6.830;2023-02-18T09:38:44;7.05;;;2.47;;
14732;SDS011;7457;50.960;6.830;2023-02-18T09:41:23;4.63;;;2.28;;
14732;SDS011;7457;50.960;6.830;2023-02-18T09:43:59;7.53;;;2.90;;
14732;SDS011;7457;50.960;6.830;2023-02-18T09:46:30;7.82;;;3.10;;
14732;SDS011;7457;50.960;6.830;2023-02-18T09:49:03;7.43;;;2.70;;
14732;SDS011;7457;50.960;6.830;2023-02-18T09:51:32;5.20;;;2.15;;
14732;SDS011;7457;50.960;6.830;2023-02-18T09:53:58;4.78;;;2.42;;
14732;SDS011;7457;50.960;6.830;2023-02-18T09:56:29;4.93;;;2.35;;
14732;SDS011;7457;50.960;6.830;2023-02-18T09:58:58;7.18;;;2.92;;
14732;SDS011;7457;50.960;6.830;2023-02-18T10:01:33;5.47;;;3.05;;
14732;SDS011;7457;50.960;6.830;2023-02-18T10:05:02;8.90;;;3.10;;
14732;SDS011;7457;50.960;6.830;2023-02-18T10:07:04;8.05;;;3.22;;
14732;SDS011;7457;50.960;6.830;2023-02-18T10:09:32;6.68;;;2.80;;
14732;SDS011;7457;50.960;6.830;2023-02-18T10:12:19;5.57;;;2.60;;
14732;SDS011;7457;50.960;6.830;2023-02-18T10:14:50;7.63;;;2.60;;
14732;SDS011;7457;50.960;6.830;2023-02-18T10:17:19;7.63;;;2.90;;
14732;SDS011;7457;50.960;6.830;2023-02-18T10:19:47;6.55;;;3.10;;
14732;SDS011;7457;50.960;6.830;2023-02-18T10:22:15;10.55;;;3.00;;
14732;SDS011;7457;50.960;6.830;2023-02-18T10:24:43;7.53;;;2.80;;
14732;SDS011;7457;50.960;6.830;2023-02-18T10:27:16;9.48;;;3.30;;
14732;SDS011;7457;50.960;6.830;2023-02-18T10:29:47;8.48;;;3.55;;
14732;SDS011;7457;50.960;6.830;2023-02-18T10:40:46;7.43;;;2.97;;
14732;SDS011;7457;50.960;6.830;2023-02-18T10:51:25;7.90;;;2.75;;
14732;SDS011;7457;50.960;6.830;2023-02-18T10:53:54;7.32;;;2.60;;
14732;SDS011;7457;50.960;6.830;2023-02-18T11:01:38;5.53;;;3.38;;
14732;SDS011;7457;50.960;6.830;2023-02-18T11:04:11;4.53;;;3.00;;
14732;SDS011;7457;50.960;6.830;2023-02-18T11:06:45;5.07;;;3.38;;
14732;SDS011;7457;50.960;6.830;2023-02-18T11:09:36;6.40;;;3.33;;
14732;SDS011;7457;50.960;6.830;2023-02-18T11:12:16;10.48;;;3.90;;
14732;SDS011;7457;50.960;6.830;2023-02-18T11:14:48;5.60;;;3.15;;
14732;SDS011;7457;50.960;6.830;2023-02-18T11:17:28;7.30;;;3.30;;
14732;SDS011;7457;50.960;6.830;2023-02-18T11:19:57;7.63;;;3.40;;
14732;SDS011;7457;50.960;6.830;2023-02-18T11:24:54;4.95;;;3.55;;
14732;SDS011;7457;50.960;6.830;2023-02-18T11:27:26;7.85;;;3.35;;
14732;SDS011;7457;50.960;6.830;2023-02-18T11:30:04;3.60;;;3.30;;
14732;SDS011;7457;50.960;6.830;2023-02-18T11:32:40;4.10;;;3.50;;
14732;SDS011;7457;50.960;6.830;2023-02-18T11:35:15;5.85;;;3.50;;
14732;SDS011;7457;50.960;6.830;2023-02-18T11:37:46;4.60;;;3.45;;
14732;SDS011;7457;50.960;6.830;2023-02-18T11:40:27;6.63;;;3.72;;
14732;SDS011;7457;50.960;6.830;2023-02-18T11:43:03;4.18;;;3.75;;
14732;SDS011;7457;50.960;6.830;2023-02-18T11:45:37;4.80;;;3.40;;
14732;SDS011;7457;50.960;6.830;2023-02-18T11:48:14;4.93;;;3.40;;
14732;SDS011;7457;50.960;6.830;2023-02-18T11:50:41;4.43;;;3.50;;
14732;SDS011;7457;50.960;6.830;2023-02-18T11:53:26;4.45;;;3.70;;
14732;SDS011;7457;50.960;6.830;2023-02-18T11:55:57;5.97;;;4.28;;
14732;SDS011;7457;50.960;6.830;2023-02-18T11:58:25;6.15;;;4.55;;
14732;SDS011;7457;50.960;6.830;2023-02-18T12:00:55;3.17;;;2.95;;
14732;SDS011;7457;50.960;6.830;2023-02-18T12:06:17;4.53;;;3.65;;
14732;SDS011;7457;50.960;6.830;2023-02-18T12:08:50;4.93;;;4.03;;
14732;SDS011;7457;50.960;6.830;2023-02-18T12:11:27;3.63;;;3.33;;
14732;SDS011;7457;50.960;6.830;2023-02-18T12:13:58;6.15;;;4.50;;
14732;SDS011;7457;50.960;6.830;2023-02-18T12:21:46;5.60;;;3.65;;
14732;SDS011;7457;50.960;6.830;2023-02-18T12:43:31;3.80;;;3.40;;
14732;SDS011;7457;50.960;6.830;2023-02-18T12:57:30;3.63;;;2.78;;
14732;SDS011;7457;50.960;6.830;2023-02-18T13:06:50;4.70;;;3.08;;
14732;SDS011;7457;50.960;6.830;2023-02-18T13:14:32;4.38;;;2.92;;
14732;SDS011;7457;50.960;6.830;2023-02-18T13:17:13;4.35;;;3.40;;
14732;SDS011;7457;50.960;6.830;2023-02-18T13:22:11;4.15;;;3.05;;
14732;SDS011;7457;50.960;6.830;2023-02-18T13:24:41;3.58;;;2.97;;
14732;SDS011;7457;50.960;6.830;2023-02-18T13:27:20;4.45;;;3.10;;
14732;SDS011;7457;50.960;6.830;2023-02-18T13:40:41;3.58;;;3.28;;
14732;SDS011;7457;50.960;6.830;2023-02-18T13:43:28;4.82;;;3.45;;
14732;SDS011;7457;50.960;6.830;2023-02-18T13:48:33;3.70;;;2.55;;
14732;SDS011;7457;50.960;6.830;2023-02-18T13:51:06;3.03;;;2.70;;
14732;SDS011;7457;50.960;6.830;2023-02-18T13:53:35;4.90;;;3.10;;
14732;SDS011;7457;50.960;6.830;2023-02-18T13:56:03;3.83;;;3.17;;
14732;SDS011;7457;50.960;6.830;2023-02-18T13:58:38;4.50;;;3.30;;
14732;SDS011;7457;50.960;6.830;2023-02-18T14:06:14;4.13;;;2.85;;
14732;SDS011;7457;50.960;6.830;2023-02-18T14:08:41;3.58;;;3.28;;
14732;SDS011;7457;50.960;6.830;2023-02-18T14:16:05;3.25;;;2.85;;
14732;SDS011;7457;50.960;6.830;2023-02-18T14:21:33;3.72;;;2.85;;
14732;SDS011;7457;50.960;6.830;2023-02-18T14:24:03;3.78;;;2.80;;
14732;SDS011;7457;50.960;6.830;2023-02-18T14:26:32;3.88;;;2.45;;
14732;SDS011;7457;50.960;6.830;2023-02-18T14:29:14;2.80;;;2.35;;
14732;SDS011;7457;50.960;6.830;2023-02-18T14:31:47;2.67;;;2.15;;
14732;SDS011;7457;50.960;6.830;2023-02-18T14:42:19;2.70;;;2.15;;
14732;SDS011;7457;50.960;6.830;2023-02-18T14:45:13;2.92;;;2.00;;
14732;SDS011;7457;50.960;6.830;2023-02-18T14:50:58;5.85;;;2.13;;
14732;SDS011;7457;50.960;6.830;2023-02-18T14:53:25;2.00;;;1.90;;
14732;SDS011;7457;50.960;6.830;2023-02-18T14:55:58;3.78;;;2.60;;
14732;SDS011;7457;50.960;6.830;2023-02-18T14:58:30;2.08;;;1.98;;
14732;SDS011;7457;50.960;6.830;2023-02-18T15:01:06;2.97;;;2.20;;
14732;SDS011;7457;50.960;6.830;2023-02-18T15:03:41;3.53;;;2.38;;
14732;SDS011;7457;50.960;6.830;2023-02-18T15:09:00;2.92;;;2.42;;
14732;SDS011;7457;50.960;6.830;2023-02-18T15:11:37;2.50;;;2.30;;
14732;SDS011;7457;50.960;6.830;2023-02-18T15:14:10;2.63;;;2.42;;
14732;SDS011;7457;50.960;6.830;2023-02-18T15:16:47;2.50;;;2.30;;
14732;SDS011;7457;50.960;6.830;2023-02-18T15:19:14;2.70;;;2.40;;
14732;SDS011;7457;50.960;6.830;2023-02-18T15:21:43;4.53;;;2.50;;
14732;SDS011;7457;50.960;6.830;2023-02-18T15:24:30;2.25;;;2.13;;
14732;SDS011;7457;50.960;6.830;2023-02-18T15:26:58;2.60;;;2.40;;
14732;SDS011;7457;50.960;6.830;2023-02-18T15:29:28;2.92;;;2.25;;
14732;SDS011;7457;50.960;6.830;2023-02-18T15:31:57;3.03;;;2.10;;
14732;SDS011;7457;50.960;6.830;2023-02-18T15:36:52;2.20;;;2.05;;
14732;SDS011;7457;50.960;6.830;2023-02-18T15:39:18;2.45;;;2.25;;
14732;SDS011;7457;50.960;6.830;2023-02-18T15:41:44;2.60;;;2.40;;
14732;SDS011;7457;50.960;6.830;2023-02-18T15:44:18;2.63;;;2.42;;
14732;SDS011;7457;50.960;6.830;2023-02-18T15:46:47;3.25;;;2.65;;
14732;SDS011;7457;50.960;6.830;2023-02-18T15:49:18;3.67;;;2.88;;
14732;SDS011;7457;50.960;6.830;2023-02-18T15:51:46;4.13;;;2.80;;
14732;SDS011;7457;50.960;6.830;2023-02-18T15:54:18;3.22;;;2.80;;
14732;SDS011;7457;50.960;6.830;2023-02-18T15:56:48;3.70;;;2.35;;
14732;SDS011;7457;50.960;6.830;2023-02-18T16:01:41;2.50;;;2.30;;
14732;SDS011;7457;50.960;6.830;2023-02-18T16:04:12;3.13;;;2.70;;
14732;SDS011;7457;50.960;6.830;2023-02-18T16:06:43;2.50;;;2.30;;
14732;SDS011;7457;50.960;6.830;2023-02-18T16:09:28;2.30;;;2.10;;
14732;SDS011;7457;50.960;6.830;2023-02-18T16:11:59;2.60;;;2.28;;
14732;SDS011;7457;50.960;6.830;2023-02-18T16:19:46;3.65;;;3.25;;
14732;SDS011;7457;50.960;6.830;2023-02-18T16:30:24;2.53;;;2.38;;
14732;SDS011;7457;50.960;6.830;2023-02-18T16:32:52;3.20;;;3.00;;
14732;SDS011;7457;50.960;6.830;2023-02-18T16:35:20;3.58;;;3.28;;
14732;SDS011;7457;50.960;6.830;2023-02-18T16:37:46;5.28;;;3.40;;
14732;SDS011;7457;50.960;6.830;2023-02-18T16:43:14;3.30;;;3.00;;
14732;SDS011;7457;50.960;6.830;2023-02-18T16:45:43;3.10;;;2.90;;
14732;SDS011;7457;50.960;6.830;2023-02-18T16:48:18;3.92;;;2.80;;
14732;SDS011;7457;50.960;6.830;2023-02-18T16:50:55;4.22;;;3.70;;
14732;SDS011;7457;50.960;6.830;2023-02-18T16:53:23;3.65;;;3.35;;
14732;SDS011;7457;50.960;6.830;2023-02-18T16:55:49;4.30;;;2.72;;
14732;SDS011;7457;50.960;6.830;2023-02-18T16:58:15;3.40;;;3.10;;
14732;SDS011;7457;50.960;6.830;2023-02-18T17:00:41;4.03;;;3.55;;
14732;SDS011;7457;50.960;6.830;2023-02-18T17:03:08;5.07;;;3.90;;
14732;SDS011;7457;50.960;6.830;2023-02-18T17:05:34;3.63;;;3.33;;
14732;SDS011;7457;50.960;6.830;2023-02-18T17:08:11;3.75;;;3.38;;
14732;SDS011;7457;50.960;6.830;2023-02-18T17:10:50;4.03;;;3.20;;
14732;SDS011;7457;50.960;6.830;2023-02-18T17:13:21;4.82;;;3.38;;
14732;SDS011;7457;50.960;6.830;2023-02-18T17:15:49;4.28;;;3.80;;
14732;SDS011;7457;50.960;6.830;2023-02-18T17:18:16;4.55;;;3.90;;
14732;SDS011;7457;50.960;6.830;2023-02-18T17:20:42;6.13;;;4.35;;
14732;SDS011;7457;50.960;6.830;2023-02-18T17:23:14;5.25;;;4.25;;
14732;SDS011;7457;50.960;6.830;2023-02-18T17:25:45;4.72;;;4.25;;
14732;SDS011;7457;50.960;6.830;2023-02-18T17:28:12;6.63;;;4.50;;
14732;SDS011;7457;50.960;6.830;2023-02-18T17:30:40;5.53;;;4.13;;
14732;SDS011;7457;50.960;6.830;2023-02-18T17:33:06;6.00;;;4.50;;
14732;SDS011;7457;50.960;6.830;2023-02-18T17:35:38;5.65;;;4.20;;
14732;SDS011;7457;50.960;6.830;2023-02-18T17:38:14;6.45;;;4.72;;
14732;SDS011;7457;50.960;6.830;2023-02-18T17:40:41;6.65;;;4.63;;
14732;SDS011;7457;50.960;6.830;2023-02-18T17:43:09;6.32;;;4.70;;
14732;SDS011;7457;50.960;6.830;2023-02-18T17:45:50;6.25;;;4.55;;
14732;SDS011;7457;50.960;6.830;2023-02-18T17:48:17;5.18;;;4.38;;
14732;SDS011;7457;50.960;6.830;2023-02-18T17:50:43;6.32;;;5.72;;
14732;SDS011;7457;50.960;6.830;2023-02-18T17:53:13;7.32;;;4.70;;
14732;SDS011;7457;50.960;6.830;2023-02-18T17:55:39;9.90;;;5.63;;
14732;SDS011;7457;50.960;6.830;2023-02-18T17:58:06;6.47;;;5.53;;
14732;SDS011;7457;50.960;6.830;2023-02-18T18:00:33;10.85;;;6.18;;
14732;SDS011;7457;50.960;6.830;2023-02-18T18:03:01;7.18;;;6.03;;
14732;SDS011;7457;50.960;6.830;2023-02-18T18:05:31;8.18;;;6.68;;
14732;SDS011;7457;50.960;6.830;2023-02-18T18:08:02;7.95;;;7.15;;
14732;SDS011;7457;50.960;6.830;2023-02-18T18:10:29;10.35;;;7.75;;
14732;SDS011;7457;50.960;6.830;2023-02-18T18:13:01;8.25;;;7.38;;
14732;SDS011;7457;50.960;6.830;2023-02-18T18:18:00;8.25;;;7.05;;
14732;SDS011;7457;50.960;6.830;2023-02-18T18:20:26;9.70;;;7.97;;